Anderlues - Challenge de la Province du Hainaut

Le jogging des ruelles à Anderlues (5.87 km)

Classement complet

Vous pouvez trouver Le classement original sur : http://www.challengehainaut.be/
 
CHALLENGE DE LA PROVINCE DU HAINAUT
LE JOGGING DES RUELLES - ANDERLUES
DISTANCE 5.87 km
samedi 11 mars 2017
 
Place dos NOM Equipe Catégorie Pl/cat temps temps/km Vitesse
01:00:00                
1 1043 D'AURILIO SIMEON JOGGERS BEERSEL SE 1 00:20:19 03:28 17.34
2 1383 MUSTIN HARRISSON   SE 2 00:20:33 03:30 17.14
3 2274 BRIFFEUIL OLIVIER SPIBO V1 1 00:20:49 03:33 16.92
4 2295 VOLPE DOMENICO   SE 3 00:20:59 03:34 16.78
5 2235 LAMBIN PIERRE UAC SE 4 00:21:03 03:35 16.73
6 2276 VERMEERSCH STIJN HOME SOLUTION SE 5 00:21:05 03:36 16.71
7 1396 TACNIERE JOACHIM   JH 1 00:21:08 03:36 16.67
8 2284 DEBIASI MIKE   V1 2 00:21:14 03:37 16.59
9 1069 PENNE MARIO HOME SOLUTION V1 3 00:21:24 03:39 16.46
10 1500 LUCION ALEXANDRE PATRICK JAILLOT & ASSOCIÉS SE 6 00:21:31 03:40 16.37
11 1212 D'AURILIO MARVIN JOGGERS BEERSEL EH 1 00:21:56 03:44 16.06
12 2292 KESTENS LORY   SE 7 00:21:59 03:45 16.02
13 1292 BASTIN NOEMY   SE 8 00:22:03 03:45 15.97
14 1228 RISO FRANCISCO JC ESTINNES SE 9 00:22:12 03:47 15.86
15 2259 TRAINA CHRISTOPHE OTC V1 4 00:22:20 03:48 15.77
16 3033 POELAERT FRANK BONES V1 5 00:22:23 03:49 15.73
17 2289 LARELLE JULIAN CABW SE 10 00:22:31 03:50 15.64
18 1197 DEJARDIN PHILIPPE NAC V1 6 00:22:38 03:51 15.56
19 1407 LECHIEN JEROME   SE 11 00:22:49 03:53 15.44
20 1026 FREREJEAN SEBASTIEN   SE 12 00:22:51 03:54 15.41
21 1359 LIENARD PHILIPPE ARAMIS RUNNING MONS V1 7 00:22:52 03:54 15.40
22 1399 POURCHAUX ALEXIS LES ZONARDS EH 2 00:22:54 03:54 15.38
23 1353 SCHELHOUT PHILIPPE LES AMIS JOGGEURS ST GHISLAIN V2 1 00:23:20 03:59 15.09
24 1250 LECAT NATHALIE   A1 1 00:23:24 03:59 15.05
25 1262 VANDERSTRAETEN LUCA VITA JH 2 00:23:36 04:01 14.92
26 2296 DEPREZ LIONEL   EH 3 00:23:47 04:03 14.81
27 1087 IGLESIAS NICOLAS   SE 13 00:23:47 04:03 14.81
28 2226 PHILIPPRON FREDERIC   V1 8 00:24:06 04:06 14.61
29 1355 MASSOELS PATRICK J.C.ESTINNES V2 2 00:24:06 04:06 14.61
30 1237 HADJ GLENN   EH 4 00:24:07 04:07 14.60
31 2220 LIENARD PASCAL   V1 9 00:24:08 04:07 14.59
32 2277 DRAUX CELINE CABW DA 1 00:24:18 04:08 14.49
33 2218 DRAUX JEAN-PHILIPPE LA THURE V2 3 00:24:20 04:09 14.47
34 1305 CICERO EPIFANIO TOTAL V2 4 00:24:25 04:10 14.42
35 1424 LEGROS JACQUES LA THURE V3 1 00:24:30 04:10 14.38
36 1387 FORREST DIDIER JC ESTINNES V2 5 00:24:32 04:11 14.36
37 1311 GALLUCCIO ANTONIO OTS RUNNERS V3 2 00:24:41 04:12 14.27
38 2286 DEBIASI HUGO   JH 3 00:24:48 04:13 14.20
39 2272 MASQUELLIER JOEL   SE 14 00:24:55 04:15 14.14
40 2293 BERTONI XAVIER RRB SE 15 00:25:03 04:16 14.06
41 1101 ADANT TOM ACLO JH 4 00:25:04 04:16 14.05
42 1284 FERAUCHE JOHN   V1 10 00:25:11 04:17 13.99
43 1327 HOPPEN ALAIN AMIS FB V1 11 00:25:13 04:18 13.97
44 1000 WINDAL PATRICIA CABW A2 1 00:25:15 04:18 13.95
45 2275 ROISIN NICOLAS LA THURE EH 5 00:25:26 04:20 13.85
46 2230 CLABOTS OLIVIER GERPINNES & CO SE 16 00:25:28 04:20 13.83
47 1288 DULIEU GIL UAC JH 5 00:25:41 04:23 13.71
48 1009 THEYS VINCENT   V2 6 00:25:44 04:23 13.69
49 2238 VELGHE HENRI J.C.MONTAGNARD SE 17 00:25:52 04:24 13.62
50 2228 MODOLO MAVRIK   SE 18 00:25:59 04:26 13.55
51 1105 DOYEN MAXIME JC ESTINNES/LES ZONARDS SE 19 00:26:01 04:26 13.54
52 1317 DERIVEAU JEAN USBW V4 1 00:26:06 04:27 13.49
53 1433 JADIN THOMAS CABW SE 20 00:26:09 04:27 13.47
54 1126 CECI MICHEL   V1 12 00:26:33 04:31 13.27
55 1192 MARTINEZ ALESSIO OTS RUNNERS JH 6 00:26:37 04:32 13.23
56 2258 THOMAS MEDERIC ARAMIS RUNNING MONS SE 21 00:26:37 04:32 13.23
57 2214 BROUSSE CHARLES UMONS SE 22 00:26:42 04:33 13.19
58 2250 DEBELLE ARTHUR   JH 7 00:26:45 04:33 13.17
59 1031 MOLLICA BASTIEN   EH 6 00:26:58 04:36 13.06
60 2282 ROSART CHRISTIAN   V4 2 00:26:59 04:36 13.05
61 1146 SCHOONHEYT NICOLAS BJB EH 7 00:27:09 04:38 12.97
62 1053 VAN DEN ELSEN JEAN-PIERRE BJB V3 3 00:27:12 04:38 12.95
63 1029 HEYMANS ISABELLE OTS RUNNERS DA 2 00:27:19 04:39 12.89
64 414 LEBRUN PIERRE MADRES SE 23 00:27:24 04:40 12.85
65 2240 DECOEN EDDY J.C.MONTAGNARD SE 24 00:27:27 04:41 12.83
66 2287 PARREZ EDDY   V1 13 00:27:32 04:41 12.79
67 1027 ADAM NICOLAS   V1 14 00:27:41 04:43 12.72
68 1189 HERPAIN CEDRIC   V1 15 00:27:44 04:43 12.70
69 1194 DEVOS ALAIN BJB V2 7 00:27:45 04:44 12.69
70 2229 LEBACQ JEROME   SE 25 00:28:00 04:46 12.58
71 2239 DEFLANDRE MAXIME   SE 26 00:28:00 04:46 12.58
72 1062 FRAGAPANE CALOGERO JC BRACQ V4 3 00:28:11 04:48 12.50
73 1045 DEMARETS JOEL NAC V4 4 00:28:22 04:50 12.42
74 1257 HARVENT JEAN-CLAUDE JT BESONRIEUX V3 4 00:28:23 04:50 12.41
75 1113 DERUYTER DIDIER JT BESONRIEUX V3 5 00:28:30 04:51 12.36
76 1217 DE VOS VERONIQUE OEH A1 2 00:28:31 04:51 12.35
77 1279 BAUDUIN ERIC   V2 8 00:28:34 04:52 12.33
78 1152 SEL MICHEL ACLO/NAC V5 1 00:28:45 04:54 12.25
79 1392 SMET HUGO VERTIGO JH 8 00:28:50 04:55 12.22
80 1234 GRENIER SABINE SPEED-CITY/ACLO A1 3 00:28:53 04:55 12.19
81 1221 VANDERSTRAETEN LUANA TRAINING 7 JD 1 00:28:57 04:56 12.17
82 1252 BULTOT JEAN-MARIE RAIMBOW MULTISPORT TEAM V4 5 00:29:06 04:57 12.10
83 1125 DUPONT OLIVIER RUNNING SPORT V1 16 00:29:07 04:58 12.10
84 2299 VANCAEYZEELE JULIEN ARAMIS RUNNING MONS V1 17 00:29:10 04:58 12.08
85 1174 DULIEU STEVE UAC SE 27 00:29:11 04:58 12.07
86 1278 LIEGEOIS PASCAL ESM/JC ESTINNES V3 6 00:29:37 05:03 11.89
87 1051 VANDEWINCKEL MELANIE   A1 4 00:29:44 05:04 11.85
88 1366 PILATE CHRISTOPHE VITALITÉ BINCHE V2 9 00:29:47 05:04 11.83
89 1032 PLUMET WILLIAM HTT V4 6 00:29:47 05:04 11.83
90 1003 VANESSE MYRIAM JC MONTAGNARD/ATCC A2 2 00:29:49 05:05 11.81
91 1070 DESHAYES SEVERINE JC THIMEON A1 5 00:30:01 05:07 11.73
92 2224 GLACET PASCAL J.C.H/S/H V2 10 00:30:18 05:10 11.62
93 1282 DELSANNE PASCAL JC ESTINNES V1 18 00:30:20 05:10 11.61
94 1156 LIEGEOIS STEPHANE ESM V3 7 00:30:20 05:10 11.61
95 114 BELKACEM RACHEID LES BOULETTES V1 19 00:30:24 05:11 11.59
96 1422 BELKACEM YURII LES BOULETTES JH 9 00:30:24 05:11 11.59
97 1129 GOBERT VALERIE ACLO A1 6 00:30:32 05:12 11.53
98 1275 CEUPPENS PATRICK BVL V3 8 00:30:33 05:12 11.53
99 1038 ROOSENS ELIANE OEH A5 1 00:30:40 05:13 11.48
100 1147 STOPPIE FILIP OEH V3 9 00:30:43 05:14 11.47
101 1160 CEREGHETTI THOMAS   SE 28 00:30:43 05:14 11.47
102 2291 DEPREZ ANTOINE   JH 10 00:30:54 05:16 11.40
103 1157 VANDENHEEDE CHANTAL JC MARIEMONT A4 1 00:30:55 05:16 11.39
104 1177 MELON JEAN-MARC   V2 11 00:31:00 05:17 11.36
105 1267 DE CNYF NANCY ACLO A1 7 00:31:06 05:18 11.32
106 1398 POURCHAUX PASCAL LES ZONARDS V1 20 00:31:08 05:18 11.31
107 1246 ROBERT JENIFER JC ESTINNES JD 2 00:31:13 05:19 11.28
108 1386 GUERIN VERONIQUE   A2 3 00:31:13 05:19 11.28
109 1112 POCHET JOEL   V2 12 00:31:15 05:19 11.27
110 1226 CICERO JOHANNA ACLO DA 3 00:31:17 05:20 11.26
111 1037 TERRIBILE MAURICE   V5 2 00:31:37 05:23 11.14
112 2242 BAYEUL EMY   JD 3 00:31:40 05:24 11.12
113 2241 BAYEUL GREGORY   V1 21 00:31:43 05:24 11.10
114 1056 LELOUX JULIEN JT BESONRIEUX JH 11 00:31:47 05:25 11.08
115 1171 DELHELLE NANCY ACLO A2 4 00:31:51 05:26 11.06
116 1390 GILLES JEAN-PIERRE JC MONTAGNARD V4 7 00:31:55 05:26 11.03
117 1172 LEQUEUX MANON ACLO DA 4 00:31:56 05:26 11.03
118 1380 DANLY FLORENCE   A1 8 00:31:58 05:27 11.02
119 2234 VERSTAEN SEBASTIEN   SE 29 00:32:06 05:28 10.97
120 1001 DRUGMAND NOEMIE ACLO JD 4 00:32:09 05:29 10.95
121 2283 DELORGE SYLVAIN ACTE EH 8 00:32:21 05:31 10.89
122 1185 MONTEGNIES SABRINA   A1 9 00:32:25 05:31 10.86
123 1065 BASTIN ETIENNE   V2 13 00:32:28 05:32 10.85
124 2279 PEETERBROEK CELINE JC HSH A1 10 00:32:45 05:35 10.75
125 1011 DANIEL CHRISTIANE HAC A5 2 00:32:55 05:36 10.70
126 1828 WILLPUTTE SÉBASTIEN RRB/OTS RUNNERS SE 30 00:33:09 05:39 10.62
127 2280 WILPUTTE NICOLAS   SE 31 00:33:10 05:39 10.62
128 2227 QUINET AMELIE   DA 5 00:33:19 05:41 10.57
129 2257 BERGER NICOLAS MJ CRAZY BIKERS V1 22 00:33:26 05:42 10.53
130 1512 CARON SANDRINE   A2 5 00:33:35 05:43 10.49
131 1397 LERNOULD DELPHINE ARAMIS RUNNING MONS DA 6 00:33:37 05:44 10.48
132 2285 BLONDEAU FRANCOISE   A2 6 00:33:43 05:45 10.45
133 2294 BEYLS FANNY   A1 11 00:33:44 05:45 10.44
134 1169 HADJ WESLEY   JH 12 00:33:44 05:45 10.44
135 1418 LABARRE JEAN-CLAUDE RRB V2 14 00:33:52 05:46 10.40
136 1047 DIRICQ DOMINIQUE NAC V2 15 00:33:53 05:46 10.39
137 1078 COLUSSI CHRISTINE JT BESONRIEUX A1 12 00:33:56 05:47 10.38
138 1115 DETTORI VIRGINIE JT BESONRIEUX A1 13 00:33:58 05:47 10.37
139 1270 SPRIMONT ISABELLE LES ZONARDS A2 7 00:33:58 05:47 10.37
140 1118 LEROY MICHEL ESM/LES ZONARDS V2 16 00:34:01 05:48 10.35
141 1471 ZISKOS LAZAROS RRB V1 23 00:34:09 05:49 10.31
142 2233 RENS KEEVIN MBK TEAM SE 32 00:34:18 05:51 10.27
143 1232 DUBRAY PAULINE LES ZONARDS ED 1 00:34:25 05:52 10.23
144 1351 BOERO CRISTINA LES AMIS JOGGEURS ST GHISLAIN A3 1 00:34:28 05:52 10.22
145 2246 GERMEAU GWENDOLINE   A1 14 00:34:33 05:53 10.19
146 2236 VANDENBROUCK LINE   A1 15 00:34:37 05:54 10.17
147 1330 FRANCOIS ALBERT JC MONTAGNARD V5 3 00:34:38 05:54 10.17
148 1042 VAN OVERWAELE VALERIE BONES/FRT BINCHE A1 16 00:34:40 05:54 10.16
149 2237 KARWAS LAURENT   SE 33 00:34:45 05:55 10.14
150 1163 DEHAESELEER MICHELE JCPMF A2 8 00:35:00 05:58 10.06
151 1425 GILQUART CHANTAL THURE A4 2 00:35:01 05:58 10.06
152 1145 BUYLE JEAN-LUC JC ESTINNES V2 17 00:35:09 05:59 10.02
153 1283 AUCELLO ANNA-EMMANUEL ACLO A1 17 00:35:14 06:00 10.00
154 1291 ESPOSITO LAORA ACLO JD 5 00:35:21 06:01 9.96
155 1019 VILERS JULIEN   SE 34 00:35:23 06:02 9.95
156 1367 CHERON MARIANNE VITALITÉ BINCHE A2 9 00:35:25 06:02 9.94
157 1080 BASTIN GWENDOLINE   DA 7 00:35:31 06:03 9.92
158 1018 CEREGHETTI ERIC   V4 8 00:35:49 06:06 9.83
159 2221 DELVAUX MARINE   DA 8 00:36:05 06:09 9.76
160 2243 DEWILLE MANOUCHKA   DA 9 00:36:06 06:09 9.76
161 2232 JENART ALAIN   V2 18 00:36:13 06:10 9.72
162 1704 DELVAUX THIERRY   V2 19 00:36:14 06:10 9.72
163 2222 NOERENS CHRISTIANE   A4 3 00:36:23 06:12 9.68
164 1066 BAILLY PAULINE   JD 6 00:36:24 06:12 9.68
165 1343 SCHIETECATTE ANN   A1 18 00:36:30 06:13 9.65
166 1179 DEN HOUDJKER WILLEM JOGGERS BEERSEL V4 9 00:36:31 06:13 9.64
167 2231 CERINI CARLA ESM A2 10 00:36:32 06:13 9.64
168 2263 BAILLY JEAN-MARC   V2 20 00:36:35 06:14 9.63
169 1170 COUPLET SABINE VITALITÉ BINCHE A2 11 00:36:38 06:14 9.61
170 1404 CAUDRY CAROLE   A1 19 00:36:40 06:15 9.61
171 1130 DESSART OLIVIER   SE 35 00:36:44 06:15 9.59
172 2281 LEJEUNE MICHAEL   EH 9 00:36:45 06:16 9.58
173 2217 POLAIN HADRIEN   SE 36 00:36:46 06:16 9.58
174 2244 DUFOUR GUERRIC   SE 37 00:36:50 06:16 9.56
175 1347 SOWULA JEAN   V5 4 00:36:55 06:17 9.54
176 1340 SITTINIERE GIUSEPPE   V1 24 00:37:00 06:18 9.52
177 1276 WALLEMME SARAH   A1 20 00:37:04 06:19 9.50
178 1251 ANSOTTE ANNE   A2 12 00:37:17 06:21 9.45
179 1405 WILDSCHUTZ THIBAUT   SE 38 00:37:20 06:22 9.43
180 1605 BONDUE ISABELLE J.C.MONTAGNARD A2 13 00:37:34 06:24 9.38
181 2262 MASSET NADIA   A2 14 00:37:34 06:24 9.38
182 2261 DUTRANOIT OLIVIER JCPMF V1 25 00:37:37 06:24 9.36
183 2255 BERTRAND ANNICK J.C.MONTAGNARD A1 21 00:37:38 06:25 9.36
184 1138 HEMERYCK MICHEL BJB V2 21 00:37:48 06:26 9.32
185 1391 ROLAND CORALIE THEODO TEMPO DA 10 00:37:50 06:27 9.31
186 1238 DESCAMPS VERONIQUE JC BRACQ A2 15 00:37:50 06:27 9.31
187 1287 MESTRE ROMAIN JCPMF FONTAINE JH 13 00:37:51 06:27 9.31
188 1230 LOONEN WILLEM BVL V5 5 00:38:01 06:29 9.26
189 1030 DOFNY CLARA   JD 7 00:38:04 06:29 9.25
190 1415 LEROY PAULETTE JC ESTINNES/LES ZONARDS A5 3 00:38:09 06:30 9.23
191 1414 TALMAT JEAN-MARC JT BESONRIEUX V2 22 00:38:22 06:32 9.18
192 2288 CORNIL JEAN-YVES   V1 26 00:38:25 06:33 9.17
193 2260 DEGREVE CAROLE JCPMF A1 22 00:38:25 06:33 9.17
194 2225 ROBAYE STEPHANIE   A1 23 00:38:29 06:33 9.15
195 1015 PETIT VERONIQUE HAC A3 2 00:38:32 06:34 9.14
196 2247 GERMEAU RACHEL J.C.H/S/H A1 24 00:38:34 06:34 9.13
197 2219 ROLAND PHILIPPE THEODO TEMPO V2 23 00:38:34 06:34 9.13
198 1154 ALVES MARCO ACLO V2 24 00:38:41 06:35 9.10
199 2215 MILON AMELIE   DA 11 00:38:43 06:36 9.10
200 1258 MUTONI SHADIA JT BESONRIEUX A1 25 00:38:58 06:38 9.04
201 1175 CAVROT CHRISTIAN TATANE AILÉE V4 10 00:38:59 06:38 9.03
202 1206 COPOIS MARIE-FRANÇOISE JT BESONRIEUX A4 4 00:38:59 06:38 9.03
203 1181 DEKONINCK DELPHINE   DA 12 00:39:13 06:41 8.98
204 1023 POURTOIT ALAIN FRT BINCHE V3 10 00:39:24 06:43 8.94
205 1411 MARIN JULIE   DA 13 00:39:25 06:43 8.94
206 1375 ALVES EVERLY   DA 14 00:39:36 06:45 8.89
207 1141 BOSMANS ISABELLE RC PEISSANT A2 16 00:39:40 06:45 8.88
208 1337 DEHAEN FLORENCE JC ESTINNES A2 17 00:39:40 06:45 8.88
209 1370 GAGO-VAZQUEZ MARTINA   A2 18 00:39:51 06:47 8.84
210 2212 BUTROUICS PETER   V2 25 00:40:02 06:49 8.80
211 1363 MAURAGE CHANTAL JCPMF A2 19 00:40:04 06:50 8.79
212 2290 BLONDEL MARIE-JEANNE LA THURE A4 5 00:40:05 06:50 8.79
213 1085 BOUILLET OLIVIER   V1 27 00:40:38 06:55 8.67
214 1150 DELSINNE VIRGINIE   A2 20 00:40:40 06:56 8.66
215 1102 BLONDIAUX VALÉRIE RRB A1 26 00:40:47 06:57 8.64
216 1178 CASTIAUX MICHAEL JC ESTINNES V1 28 00:40:47 06:57 8.64
217 1076 RUELLE LÉON JC MARIEMONT V4 11 00:40:51 06:58 8.62
218 1104 ELOY JEAN-CLAUDE LA THURE V5 6 00:40:52 06:58 8.62
219 1503 MOUVET MARIE-CLAIRE USBW A5 4 00:40:59 06:59 8.59
220 1035 DUPONT MICHELE JC ESTINNES A4 6 00:41:09 07:01 8.56
221 1379 KOUTENTAKIS EMMANUEL   V1 29 00:41:11 07:01 8.55
222 1135 BUREAU VALERIE QUADRA SYMPA A1 27 00:41:27 07:04 8.50
223 1016 VERMEULEN FREDDY JC ESTINNES V5 7 00:41:30 07:04 8.49
224 1149 MARTIN LAETICIA SERIAL TRAILEURS A1 28 00:41:31 07:04 8.48
225 2252 XHARDEZ LAURENT   V1 30 00:41:32 07:05 8.48
226 2248 BERNAERT ANNE   A1 29 00:41:33 07:05 8.48
227 2253 LALOY GAETAN J/F V1 31 00:41:35 07:05 8.47
228 1142 FRAIX HELOISE   JD 8 00:41:47 07:07 8.43
229 1334 SELLIER NATHALIE   A2 21 00:41:48 07:07 8.43
230 1168 FRAIX SOPHIE   ED 2 00:41:49 07:07 8.42
231 1329 VERSPECHT VERO J.C.MARIEMONT A1 30 00:41:50 07:08 8.42
232 1176 GHISLAIN VALERIE   A1 31 00:41:51 07:08 8.42
233 1153 BUCHTA JEAN-MARIE BJB V2 26 00:41:51 07:08 8.42
234 2216 MALENGREZ GARANCE   SE 39 00:41:55 07:08 8.40
235 1402 CARTA FLORENCE   A1 32 00:41:58 07:09 8.39
236 2273 POIGNART ALEXANDRA   DA 15 00:42:03 07:10 8.38
237 1012 WUYTS PATRICIA   A2 22 00:42:06 07:10 8.37
238 1200 ANDRINA BÉATRICE JC MARIEMONT A3 3 00:42:08 07:11 8.36
239 1315 DRUART JEAN-POL ESM V2 27 00:43:18 07:23 8.13
240 2213 BROHET MARIE-GABRIELLE   DA 16 00:43:49 07:28 8.04
241 2278 CHRISTOPOULOS SOPHIE LA THURE A2 23 00:44:12 07:32 7.97
242 1235 BOUGARD BERNARD JC MARIEMONT V5 8 00:44:49 07:38 7.86
243 1114 MUSTIN DIDIER   V2 28 00:44:50 07:38 7.86
244 2249 POPULAIRE ELOISE   ED 3 00:44:53 07:39 7.85
245 2254 MAHIEU THOMAS   SE 40 00:44:54 07:39 7.84
246 1204 NUYTTEN FLORENCE HAC/RCP A1 33 00:45:08 07:41 7.80
247 1333 BEELEN LLISETTE BVL A5 5 00:45:25 07:44 7.75
248 1903 PROCUREUR DAVID   V1 32 00:46:25 07:54 7.59
249 2223 DIVINCENZO SALVATORE   V4 12 00:46:48 07:58 7.53
250 1091 BEOSIER MONIQUE JC ESTINNES A5 6 00:48:23 08:15 7.28
251 1229 DUBRUNFAUT FRANCINE JC ESTINNES A3 4 00:48:47 08:19 7.22
252 2251 BARBIER SYLVIE LA THURE A1 34 00:49:00 08:21 7.19
253 1378 DIEU MAGALI   A1 35 00:49:01 08:21 7.19
254 2271 SCHOONHEYT SOPHIE   DA 17 00:49:52 08:30 7.06
255 1362 DAGRAIN CECILE JCPMF A1 36 00:50:23 08:35 6.99
256 1971 SERVAIS BERNARD   V4 13 00:50:39 08:38 6.95
257 1912 SERVAIS VALERIE ACLO A1 37 00:50:41 08:38 6.95
258 1395 LOUVIEAUX EUSTACHE   V5 9 00:50:45 08:39 6.94
259 1964 FUMIERE CATHERINE   A2 24 00:51:34 08:47 6.83
260 1099 DESMEDT DANIEL JC ESTINNES V4 14 00:52:17 08:54 6.74
261 1127 SIRKO MARIKA   A1 38 00:56:35 09:38 6.22
262 982 DUMAY VERONIQUE J.C.MONTAGNARD A3 5 00:56:58 09:42 6.18
263 1941 RIMBAUX CECILE   A5 7 00:57:30 09:48 6.13
264 1957 STASSIN CHRISTINE   A4 7 00:57:33 09:48 6.12
265 1942 DE ROY SOLANGE HAC A5 8 01:00:09 10:15 5.86
266 978 SCHOUMAKER ANOUCHKA   DA 18 01:01:50 10:32 5.70
267 1299 SABBATINI INGRID   A2 25 01:02:23 10:38 5.65
268 1936 GENOT YVON LA THURE V5 10 01:02:42 10:41 5.62
269 1117 DE CUYPER JEAN JC ESTINNES V5 11 01:02:47 10:42 5.61
270 983 MICHEL CHANTAL   A2 26 01:04:45 11:02 5.44
271 984 LASSASSI KEITOUM   A2 27 01:04:48 11:02 5.44
272 977 ROTSAERT CARINE   A4 8 01:05:26 11:09 5.38
273 980 ROLAND AMELIE THEODO TEMPO DA 19 01:07:35 11:31 5.21
274 1990 ROLAND EMILIE THEODO TEMPO JD 9 01:07:36 11:31 5.21
275 981 LECOMTE MANUEL THEODO TEMPO SE 41 01:07:43 11:32 5.20
276 1980 ROUSSEAU VERONIQUE THEODO TEMPO A2 28 01:07:45 11:33 5.20
277 1242 BAUDOUX NELLY   A5 9 01:07:59 11:35 5.18
278 1970 SERBI IOLE   A5 10 01:08:02 11:35 5.18
279 1944 CAUCHIE MARIE-THERESE JC ESTINNES A5 11 01:17:18 13:10 4.56
280 1103 SCHMITZ MARIE-CLAIRE JC ESTINNES A3 6 01:17:24 13:11 4.55
281 1120 CASTIAUX FREDDY JC ESTINNES V2 29 01:22:16 14:01 4.28
282 1951 CAUCHIE ANDRÉE JC ESTINNES A5 12 01:22:37 14:04 4.26
283 1958 BERGMANS ANNY JC ESTINNES A5 13 01:22:41 14:05 4.26
                 
Nos dernières videos